createdAt,value
2022-12-23T00:01:25.460Z,6.72
2022-12-23T00:03:54.341Z,6.85
2022-12-23T00:06:22.896Z,5.70
2022-12-23T00:08:58.433Z,4.95
2022-12-23T00:11:27.683Z,5.57
2022-12-23T00:14:20.558Z,6.18
2022-12-23T00:16:50.666Z,6.25
2022-12-23T00:19:19.038Z,5.25
2022-12-23T00:21:48.728Z,5.82
2022-12-23T00:24:18.291Z,5.53
2022-12-23T00:26:46.521Z,5.80
2022-12-23T00:29:14.691Z,6.15
2022-12-23T00:31:42.959Z,6.15
2022-12-23T00:34:13.036Z,4.95
2022-12-23T00:36:41.662Z,5.00
2022-12-23T00:39:29.963Z,6.10
2022-12-23T00:42:31.265Z,7.45
2022-12-23T00:45:15.902Z,5.95
2022-12-23T00:48:13.898Z,5.72
2022-12-23T00:50:42.142Z,6.30
2022-12-23T00:53:10.357Z,6.38
2022-12-23T00:55:38.887Z,6.55
2022-12-23T00:58:08.379Z,6.53
2022-12-23T01:00:54.162Z,6.85
2022-12-23T01:03:39.542Z,6.80
2022-12-23T01:06:08.029Z,7.30
2022-12-23T01:08:36.354Z,7.13
2022-12-23T01:11:05.845Z,5.57
2022-12-23T01:13:35.776Z,5.43
2022-12-23T01:16:05.609Z,7.97
2022-12-23T01:18:36.114Z,5.22
2022-12-23T01:21:05.075Z,5.32
2022-12-23T01:23:33.662Z,5.50
2022-12-23T01:26:03.998Z,7.07
2022-12-23T01:28:35.004Z,7.78
2022-12-23T01:31:05.191Z,6.53
2022-12-23T01:33:34.289Z,5.72
2022-12-23T01:36:03.476Z,6.00
2022-12-23T01:38:31.725Z,5.25
2022-12-23T01:41:00.464Z,6.20
2022-12-23T01:43:46.643Z,6.18
2022-12-23T01:46:15.680Z,5.82
2022-12-23T01:48:48.611Z,5.72
2022-12-23T01:51:20.195Z,5.70
2022-12-23T01:53:51.637Z,5.22
2022-12-23T01:56:24.567Z,4.97
2022-12-23T01:58:57.197Z,5.82
2022-12-23T02:01:44.288Z,5.20
2022-12-23T02:04:15.644Z,5.18
2022-12-23T02:07:03.958Z,6.47
2022-12-23T02:09:33.891Z,6.65
2022-12-23T02:12:37.627Z,5.00
2022-12-23T02:15:44.738Z,5.03
2022-12-23T02:18:30.198Z,5.32
2022-12-23T02:21:26.087Z,5.88
2022-12-23T02:24:23.283Z,5.72
2022-12-23T02:27:11.222Z,4.50
2022-12-23T02:30:18.072Z,5.43
2022-12-23T02:33:04.137Z,6.07
2022-12-23T02:35:40.524Z,5.53
2022-12-23T02:38:13.848Z,5.43
2022-12-23T02:40:49.873Z,5.07
2022-12-23T02:43:21.444Z,6.03
2022-12-23T02:45:54.731Z,5.05
2022-12-23T02:48:33.299Z,4.88
2022-12-23T02:51:02.892Z,5.53
2022-12-23T02:53:35.435Z,5.22
2022-12-23T02:56:06.914Z,4.88
2022-12-23T02:58:42.927Z,4.57
2022-12-23T03:01:12.954Z,4.95
2022-12-23T03:03:43.761Z,3.65
2022-12-23T03:06:20.644Z,4.53
2022-12-23T03:08:50.718Z,4.35
2022-12-23T03:11:19.515Z,3.90
2022-12-23T03:14:05.027Z,4.32
2022-12-23T03:16:43.134Z,4.25
2022-12-23T03:19:22.221Z,4.20
2022-12-23T03:21:58.293Z,4.82
2022-12-23T03:24:37.905Z,4.07
2022-12-23T03:27:11.278Z,4.85
2022-12-23T03:29:45.210Z,4.40
2022-12-23T03:32:15.872Z,4.30
2022-12-23T03:34:49.344Z,4.50
2022-12-23T03:37:20.268Z,4.10
2022-12-23T03:39:53.250Z,4.05
2022-12-23T03:42:27.186Z,4.03
2022-12-23T03:45:28.452Z,4.03
2022-12-23T03:47:52.152Z,3.75
2022-12-23T03:50:24.328Z,3.33
2022-12-23T03:52:58.046Z,4.43
2022-12-23T03:55:32.004Z,3.50
2022-12-23T03:58:03.462Z,3.60
2022-12-23T04:00:38.616Z,3.53
2022-12-23T04:03:13.576Z,3.70
2022-12-23T04:05:50.903Z,2.95
2022-12-23T04:08:23.985Z,4.15
2022-12-23T04:10:53.321Z,3.78
2022-12-23T04:13:21.485Z,3.58
2022-12-23T04:15:49.916Z,3.67
2022-12-23T04:18:18.012Z,3.85
2022-12-23T04:20:47.573Z,3.47
2022-12-23T04:23:15.963Z,3.58
2022-12-23T04:25:44.407Z,3.88
2022-12-23T04:28:12.555Z,3.88
2022-12-23T04:30:40.654Z,4.05
2022-12-23T04:33:09.119Z,3.55
2022-12-23T04:35:37.244Z,3.58
2022-12-23T04:38:07.080Z,3.10
2022-12-23T04:40:35.249Z,2.90
2022-12-23T04:43:03.351Z,3.53
2022-12-23T04:45:31.461Z,3.83
2022-12-23T04:47:59.700Z,3.47
2022-12-23T04:50:27.890Z,4.38
2022-12-23T04:52:55.956Z,3.95
2022-12-23T04:55:25.444Z,3.67
2022-12-23T04:57:53.850Z,4.45
2022-12-23T05:00:22.636Z,4.68
2022-12-23T05:02:51.090Z,4.53
2022-12-23T05:05:19.281Z,4.15
2022-12-23T05:07:50.034Z,4.75
2022-12-23T05:10:18.453Z,4.47
2022-12-23T05:12:48.241Z,4.10
2022-12-23T05:15:16.524Z,3.65
2022-12-23T05:17:44.692Z,3.63
2022-12-23T05:20:13.028Z,4.25
2022-12-23T05:22:41.181Z,3.58
2022-12-23T05:25:10.486Z,3.95
2022-12-23T05:27:38.659Z,3.33
2022-12-23T05:30:09.920Z,4.20
2022-12-23T05:32:39.360Z,4.05
2022-12-23T05:35:08.290Z,3.03
2022-12-23T05:37:36.407Z,3.60
2022-12-23T05:40:05.116Z,3.72
2022-12-23T05:42:33.485Z,4.32
2022-12-23T05:45:03.132Z,3.83
2022-12-23T05:47:32.686Z,3.63
2022-12-23T05:50:00.854Z,3.90
2022-12-23T05:52:29.022Z,4.07
2022-12-23T05:54:57.180Z,4.18
2022-12-23T05:57:25.327Z,3.83
2022-12-23T05:59:53.944Z,3.88
2022-12-23T06:02:22.388Z,4.43
2022-12-23T06:04:51.998Z,3.95
2022-12-23T06:07:20.373Z,4.43
2022-12-23T06:09:48.494Z,3.90
2022-12-23T06:12:16.604Z,3.50
2022-12-23T06:14:44.695Z,4.15
2022-12-23T06:17:12.826Z,3.85
2022-12-23T06:19:40.964Z,2.67
2022-12-23T06:22:10.459Z,3.88
2022-12-23T06:24:38.935Z,3.63
2022-12-23T06:27:07.055Z,3.25
2022-12-23T06:29:35.165Z,3.53
2022-12-23T06:32:03.336Z,3.83
2022-12-23T06:34:31.605Z,3.42
2022-12-23T06:36:59.829Z,3.28
2022-12-23T06:39:29.413Z,4.13
2022-12-23T06:41:57.803Z,3.53
2022-12-23T06:44:25.885Z,2.83
2022-12-23T06:46:54.004Z,3.05
2022-12-23T06:49:22.490Z,3.10
2022-12-23T06:51:50.626Z,3.08
2022-12-23T06:54:19.136Z,3.20
2022-12-23T06:56:48.611Z,2.90
2022-12-23T06:59:16.934Z,2.75
2022-12-23T07:01:45.395Z,2.92
2022-12-23T07:04:13.786Z,2.15
2022-12-23T07:06:41.984Z,2.75
2022-12-23T07:09:10.180Z,2.38
2022-12-23T07:11:38.355Z,2.45
2022-12-23T07:14:07.890Z,2.03
2022-12-23T07:16:36.033Z,2.17
2022-12-23T07:19:04.896Z,2.00
2022-12-23T07:21:33.448Z,2.10
2022-12-23T07:24:01.559Z,2.15
2022-12-23T07:26:29.712Z,2.50
2022-12-23T07:28:58.363Z,1.75
2022-12-23T07:31:28.353Z,2.10
2022-12-23T07:33:56.906Z,2.28
2022-12-23T07:36:24.987Z,2.50
2022-12-23T07:38:53.333Z,2.97
2022-12-23T07:41:21.544Z,2.45
2022-12-23T07:43:49.699Z,2.50
2022-12-23T07:46:17.874Z,3.08
2022-12-23T07:48:47.711Z,2.67
2022-12-23T07:51:15.801Z,2.50
2022-12-23T07:53:44.108Z,2.75
2022-12-23T07:56:12.268Z,3.03
2022-12-23T07:58:40.395Z,2.83
2022-12-23T08:01:09.139Z,3.00
2022-12-23T08:03:38.262Z,2.70
2022-12-23T08:06:12.650Z,2.15
2022-12-23T08:08:41.899Z,2.28
2022-12-23T08:11:11.348Z,2.47
2022-12-23T08:13:41.361Z,2.08
2022-12-23T08:16:10.050Z,2.53
2022-12-23T08:18:40.272Z,2.45
2022-12-23T08:21:14.668Z,2.47
2022-12-23T08:23:43.914Z,2.70
2022-12-23T08:26:14.351Z,2.90
2022-12-23T08:28:44.544Z,2.97
2022-12-23T08:31:15.181Z,2.85
2022-12-23T08:33:45.024Z,2.72
2022-12-23T08:36:22.180Z,2.95
2022-12-23T08:38:51.731Z,2.92
2022-12-23T08:41:22.380Z,2.90
2022-12-23T08:43:51.586Z,2.75
2022-12-23T08:46:20.083Z,2.65
2022-12-23T08:48:50.154Z,3.40
2022-12-23T08:51:22.270Z,3.00
2022-12-23T08:53:54.841Z,2.97
2022-12-23T08:56:27.597Z,3.70
2022-12-23T08:58:56.847Z,3.38
2022-12-23T09:01:27.305Z,2.85
2022-12-23T09:03:56.424Z,4.40
2022-12-23T09:06:30.060Z,3.30
2022-12-23T09:08:59.033Z,3.55
2022-12-23T09:11:29.287Z,3.40
2022-12-23T09:13:59.492Z,4.05
2022-12-23T09:16:28.066Z,3.75
2022-12-23T09:18:56.413Z,3.97
2022-12-23T09:21:25.945Z,4.32
2022-12-23T09:23:54.105Z,4.18
2022-12-23T09:26:24.495Z,3.58
2022-12-23T09:28:53.016Z,3.97
2022-12-23T09:31:22.021Z,4.68
2022-12-23T09:33:52.257Z,4.43
2022-12-23T09:36:21.150Z,3.97
2022-12-23T09:38:55.284Z,4.07
2022-12-23T09:41:39.883Z,4.78
2022-12-23T09:44:23.837Z,4.70
2022-12-23T09:46:55.163Z,3.83
2022-12-23T09:49:24.983Z,5.03
2022-12-23T09:52:00.218Z,4.65
2022-12-23T09:54:34.325Z,5.53
2022-12-23T09:57:08.289Z,5.88
2022-12-23T09:59:52.304Z,6.18
2022-12-23T10:02:27.447Z,5.35
2022-12-23T10:05:04.569Z,4.82
2022-12-23T10:07:38.816Z,5.93
2022-12-23T10:10:17.720Z,6.03
2022-12-23T10:12:49.543Z,5.80
2022-12-23T10:15:23.387Z,6.00
2022-12-23T10:17:57.513Z,6.75
2022-12-23T10:20:38.716Z,7.07
2022-12-23T10:23:15.000Z,6.47
2022-12-23T10:25:51.399Z,5.72
2022-12-23T10:28:20.077Z,6.88
2022-12-23T10:31:23.833Z,6.53
2022-12-23T10:33:52.539Z,6.65
2022-12-23T10:36:29.066Z,7.70
2022-12-23T10:39:03.334Z,7.05
2022-12-23T10:41:40.893Z,5.80
2022-12-23T10:44:29.003Z,6.93
2022-12-23T10:47:09.489Z,7.75
2022-12-23T10:49:47.931Z,7.00
2022-12-23T10:52:20.141Z,7.10
2022-12-23T10:54:49.364Z,7.90
2022-12-23T10:57:20.833Z,6.57
2022-12-23T10:59:48.952Z,7.20
2022-12-23T11:02:46.353Z,6.43
2022-12-23T11:05:18.524Z,6.38
2022-12-23T11:07:47.978Z,8.45
2022-12-23T11:10:19.564Z,7.93
2022-12-23T11:12:51.514Z,7.30
2022-12-23T11:15:32.713Z,7.00
2022-12-23T11:18:03.974Z,7.05
2022-12-23T11:20:33.612Z,7.13
2022-12-23T11:23:03.627Z,6.13
2022-12-23T11:25:40.587Z,7.82
2022-12-23T11:28:18.396Z,6.75
2022-12-23T11:30:56.857Z,6.20
2022-12-23T11:33:29.706Z,6.85
2022-12-23T11:36:03.971Z,6.35
2022-12-23T11:38:32.478Z,6.70
2022-12-23T11:41:01.074Z,6.82
2022-12-23T11:43:31.825Z,6.30
2022-12-23T11:46:25.106Z,5.30
2022-12-23T11:49:18.332Z,5.88
2022-12-23T11:51:48.425Z,5.30
2022-12-23T11:54:19.284Z,5.35
2022-12-23T11:56:51.507Z,5.38
2022-12-23T11:59:34.851Z,5.68
2022-12-23T12:02:06.838Z,5.28
2022-12-23T12:04:37.325Z,4.53
2022-12-23T12:07:07.074Z,4.90
2022-12-23T12:09:40.458Z,4.65
2022-12-23T12:12:16.344Z,5.32
2022-12-23T12:14:48.116Z,4.55
2022-12-23T12:17:22.021Z,4.40
2022-12-23T12:20:00.634Z,4.15
2022-12-23T12:22:34.645Z,4.82
2022-12-23T12:25:13.794Z,4.90
2022-12-23T12:27:45.406Z,5.53
2022-12-23T12:30:18.857Z,5.05
2022-12-23T12:33:01.065Z,5.55
2022-12-23T12:35:39.071Z,4.82
2022-12-23T12:38:15.860Z,5.80
2022-12-23T12:40:48.337Z,5.00
2022-12-23T12:43:25.278Z,5.28
2022-12-23T12:46:07.760Z,4.75
2022-12-23T12:48:47.134Z,5.07
2022-12-23T12:51:22.282Z,4.40
2022-12-23T12:54:06.285Z,4.10
2022-12-23T12:56:41.554Z,4.60
2022-12-23T12:59:17.104Z,5.00
2022-12-23T13:01:58.631Z,4.53
2022-12-23T13:05:02.326Z,5.05
2022-12-23T13:07:39.934Z,4.85
2022-12-23T13:10:15.760Z,6.00
2022-12-23T13:12:55.288Z,5.47
2022-12-23T13:15:30.373Z,5.13
2022-12-23T13:18:17.355Z,5.95
2022-12-23T13:20:52.100Z,6.80
2022-12-23T13:26:19.837Z,8.45
2022-12-23T13:28:57.701Z,7.82
2022-12-23T13:31:39.423Z,6.55
2022-12-23T13:34:23.955Z,6.57
2022-12-23T13:37:01.571Z,6.85
2022-12-23T13:39:44.759Z,6.63
2022-12-23T13:42:26.652Z,7.03
2022-12-23T13:44:56.486Z,6.20
2022-12-23T13:47:30.453Z,5.97
2022-12-23T13:50:10.158Z,7.68
2022-12-23T13:52:58.263Z,7.38
2022-12-23T13:55:57.620Z,6.80
2022-12-23T13:58:28.208Z,6.63
2022-12-23T14:01:00.679Z,6.68
2022-12-23T14:03:35.484Z,6.20
2022-12-23T14:08:57.625Z,6.47
2022-12-23T14:11:27.531Z,6.05
2022-12-23T14:13:59.252Z,7.60
2022-12-23T14:16:46.609Z,7.40
2022-12-23T14:19:50.961Z,6.53
2022-12-23T14:22:43.022Z,6.55
2022-12-23T14:25:34.045Z,6.95
2022-12-23T14:28:12.338Z,6.15
2022-12-23T14:30:45.076Z,6.40
2022-12-23T14:33:23.374Z,6.95
2022-12-23T14:35:55.760Z,6.25
2022-12-23T14:38:27.436Z,6.43
2022-12-23T14:41:24.230Z,6.75
2022-12-23T14:43:59.684Z,6.60
2022-12-23T14:46:58.739Z,7.50
2022-12-23T14:49:47.992Z,6.47
2022-12-23T14:52:49.350Z,5.13
2022-12-23T14:55:46.446Z,5.55
2022-12-23T14:58:47.657Z,5.78
2022-12-23T15:01:20.175Z,6.55
2022-12-23T15:03:54.606Z,6.85
2022-12-23T15:06:34.368Z,7.38
2022-12-23T15:09:04.055Z,7.20
2022-12-23T15:11:34.816Z,6.25
2022-12-23T15:14:09.145Z,6.43
2022-12-23T15:16:45.028Z,5.88
2022-12-23T15:19:23.001Z,6.28
2022-12-23T15:21:59.598Z,6.57
2022-12-23T15:24:33.598Z,5.82
2022-12-23T15:27:26.084Z,7.00
2022-12-23T15:29:54.885Z,7.25
2022-12-23T15:32:26.047Z,7.30
2022-12-23T15:34:57.377Z,8.32
2022-12-23T15:37:29.644Z,7.05
2022-12-23T15:40:09.634Z,7.30
2022-12-23T15:42:47.276Z,7.50
2022-12-23T15:45:35.496Z,7.22
2022-12-23T15:48:07.164Z,6.88
2022-12-23T15:50:41.857Z,7.88
2022-12-23T15:53:14.651Z,7.95
2022-12-23T15:55:43.001Z,7.80
2022-12-23T15:58:19.823Z,8.77
2022-12-23T16:00:57.763Z,10.25
2022-12-23T16:03:33.876Z,9.55
2022-12-23T16:06:19.359Z,9.25
2022-12-23T16:08:56.572Z,8.55
2022-12-23T16:11:25.740Z,8.75
2022-12-23T16:14:02.057Z,8.95
2022-12-23T16:16:45.670Z,8.63
2022-12-23T16:19:40.131Z,9.45
2022-12-23T16:22:14.594Z,8.48
2022-12-23T16:24:47.646Z,9.07
2022-12-23T16:27:18.294Z,9.20
2022-12-23T16:29:49.017Z,10.70
2022-12-23T16:32:19.048Z,9.82
2022-12-23T16:34:52.306Z,9.13
2022-12-23T16:37:20.515Z,8.88
2022-12-23T16:39:48.642Z,10.48
2022-12-23T16:42:16.774Z,9.90
2022-12-23T16:44:44.851Z,9.40
2022-12-23T16:47:18.292Z,9.18
2022-12-23T16:49:48.169Z,9.98
2022-12-23T16:52:16.661Z,9.60
2022-12-23T16:54:44.815Z,11.95
2022-12-23T16:57:12.911Z,11.90
2022-12-23T16:59:41.268Z,11.23
2022-12-23T17:02:17.738Z,9.32
2022-12-23T17:04:45.882Z,11.85
2022-12-23T17:07:15.635Z,12.43
2022-12-23T17:09:43.725Z,11.32
2022-12-23T17:12:12.483Z,14.63
2022-12-23T17:14:40.606Z,16.77
2022-12-23T17:17:15.451Z,15.93
2022-12-23T17:19:43.684Z,21.45
2022-12-23T17:22:15.505Z,36.53
2022-12-23T17:24:43.631Z,18.20
2022-12-23T17:27:14.599Z,17.10
2022-12-23T17:29:43.000Z,27.73
2022-12-23T17:32:13.246Z,35.05
2022-12-23T17:34:42.349Z,26.10
2022-12-23T17:37:16.291Z,15.05
2022-12-23T17:39:45.509Z,12.07
2022-12-23T17:42:23.252Z,12.70
2022-12-23T17:44:53.550Z,20.13
2022-12-23T17:47:23.567Z,15.90
2022-12-23T17:49:52.094Z,15.30
2022-12-23T17:52:23.594Z,12.52
2022-12-23T17:54:52.884Z,20.52
2022-12-23T17:57:23.705Z,23.33
2022-12-23T17:59:53.247Z,21.08
2022-12-23T18:02:26.803Z,17.98
2022-12-23T18:04:55.244Z,18.25
2022-12-23T18:07:24.822Z,10.68
2022-12-23T18:09:53.347Z,7.55
2022-12-23T18:12:29.118Z,8.75
2022-12-23T18:14:58.037Z,7.85
2022-12-23T18:17:26.140Z,7.65
2022-12-23T18:19:54.879Z,6.80
2022-12-23T18:22:27.371Z,9.00
2022-12-23T18:24:59.374Z,7.22
2022-12-23T18:27:27.869Z,7.43
2022-12-23T18:29:55.979Z,7.57
2022-12-23T18:32:25.752Z,7.03
2022-12-23T18:34:54.836Z,8.20
2022-12-23T18:37:25.318Z,6.70
2022-12-23T18:39:53.412Z,8.00
2022-12-23T18:42:22.207Z,8.38
2022-12-23T18:44:50.281Z,8.15
2022-12-23T18:47:18.685Z,7.90
2022-12-23T18:49:46.777Z,8.85
2022-12-23T18:52:14.945Z,9.68
2022-12-23T18:54:44.417Z,7.70
2022-12-23T18:57:12.515Z,8.75
2022-12-23T18:59:40.734Z,9.38
2022-12-23T19:02:14.218Z,8.32
2022-12-23T19:04:42.993Z,8.88
2022-12-23T19:07:12.054Z,9.15
2022-12-23T19:09:40.327Z,7.88
2022-12-23T19:12:09.843Z,8.52
2022-12-23T19:14:39.869Z,7.60
2022-12-23T19:17:07.980Z,7.70
2022-12-23T19:19:36.136Z,8.95
2022-12-23T19:22:04.273Z,7.22
2022-12-23T19:24:32.385Z,8.73
2022-12-23T19:27:00.545Z,8.63
2022-12-23T19:29:30.177Z,8.50
2022-12-23T19:31:58.320Z,8.05
2022-12-23T19:34:26.681Z,7.10
2022-12-23T19:36:54.833Z,7.32
2022-12-23T19:39:24.167Z,8.90
2022-12-23T19:41:52.340Z,8.60
2022-12-23T19:44:20.513Z,6.80
2022-12-23T19:46:50.371Z,8.40
2022-12-23T19:49:20.273Z,8.00
2022-12-23T19:51:49.629Z,9.57
2022-12-23T19:54:18.352Z,7.65
2022-12-23T19:56:46.951Z,9.38
2022-12-23T19:59:15.143Z,7.57
2022-12-23T20:01:43.348Z,7.20
2022-12-23T20:04:13.485Z,6.40
2022-12-23T20:06:42.897Z,7.72
2022-12-23T20:09:13.135Z,6.75
2022-12-23T20:11:43.292Z,6.55
2022-12-23T20:14:12.696Z,6.32
2022-12-23T20:16:41.742Z,6.97
2022-12-23T20:19:09.932Z,6.05
2022-12-23T20:21:39.395Z,7.97
2022-12-23T20:24:08.382Z,6.20
2022-12-23T20:26:36.644Z,5.30
2022-12-23T20:29:04.859Z,6.20
2022-12-23T20:31:34.533Z,5.53
2022-12-23T20:34:03.731Z,6.50
2022-12-23T20:36:34.483Z,6.43
2022-12-23T20:39:05.887Z,7.20
2022-12-23T20:41:34.369Z,6.93
2022-12-23T20:44:33.982Z,6.30
2022-12-23T20:46:51.042Z,6.00
2022-12-23T20:49:19.482Z,5.80
2022-12-23T20:51:47.814Z,7.25
2022-12-23T20:54:17.612Z,6.72
2022-12-23T20:56:45.718Z,5.80
2022-12-23T20:59:13.859Z,4.93
2022-12-23T21:01:42.717Z,5.63
2022-12-23T21:04:13.169Z,5.15
2022-12-23T21:06:41.739Z,3.70
2022-12-23T21:09:13.084Z,5.25
2022-12-23T21:11:44.636Z,4.88
2022-12-23T21:14:13.264Z,5.65
2022-12-23T21:16:42.627Z,5.72
2022-12-23T21:19:16.583Z,4.53
2022-12-23T21:21:44.725Z,3.88
2022-12-23T21:24:12.997Z,4.90
2022-12-23T21:26:42.643Z,4.65
2022-12-23T21:29:11.985Z,4.07
2022-12-23T21:31:41.962Z,4.05
2022-12-23T21:34:14.516Z,3.60
2022-12-23T21:36:43.517Z,4.05
2022-12-23T21:39:15.571Z,3.47
2022-12-23T21:41:46.206Z,3.55
2022-12-23T21:44:15.131Z,1.90
2022-12-23T21:46:43.427Z,3.65
2022-12-23T21:49:12.314Z,3.28
2022-12-23T21:51:41.546Z,3.20
2022-12-23T21:54:11.298Z,3.15
2022-12-23T21:56:40.603Z,2.60
2022-12-23T21:59:13.302Z,3.10
2022-12-23T22:01:41.803Z,2.92
2022-12-23T22:04:10.023Z,2.65
2022-12-23T22:06:40.344Z,2.95
2022-12-23T22:09:09.380Z,2.67
2022-12-23T22:11:38.370Z,2.80
2022-12-23T22:14:08.272Z,1.67
2022-12-23T22:16:37.977Z,2.90
2022-12-23T22:19:08.956Z,3.40
2022-12-23T22:21:39.535Z,2.85
2022-12-23T22:24:08.914Z,2.97
2022-12-23T22:26:37.456Z,2.45
2022-12-23T22:29:07.272Z,2.63
2022-12-23T22:31:40.313Z,2.40
2022-12-23T22:34:10.101Z,3.47
2022-12-23T22:36:38.660Z,2.20
2022-12-23T22:39:07.991Z,2.90
2022-12-23T22:41:36.626Z,2.97
2022-12-23T22:44:04.893Z,2.80
2022-12-23T22:46:33.258Z,2.15
2022-12-23T22:49:03.168Z,2.15
2022-12-23T22:51:32.701Z,2.63
2022-12-23T22:54:03.416Z,2.35
2022-12-23T22:56:31.585Z,2.95
2022-12-23T22:58:59.724Z,2.33
2022-12-23T23:01:30.124Z,2.00
2022-12-23T23:04:01.460Z,2.13
2022-12-23T23:06:33.250Z,1.23
2022-12-23T23:09:01.863Z,2.08
2022-12-23T23:11:30.315Z,3.03
2022-12-23T23:13:59.355Z,2.47
2022-12-23T23:16:27.951Z,1.95
2022-12-23T23:18:56.531Z,2.25
2022-12-23T23:21:24.658Z,1.92
2022-12-23T23:23:54.374Z,1.92
2022-12-23T23:26:26.757Z,2.00
2022-12-23T23:28:55.650Z,2.28
2022-12-23T23:34:12.064Z,2.53
2022-12-23T23:36:40.380Z,1.88
2022-12-23T23:39:10.424Z,2.50
2022-12-23T23:41:38.612Z,2.10
2022-12-23T23:44:07.363Z,1.92
2022-12-23T23:46:35.777Z,2.35
2022-12-23T23:49:04.385Z,2.50
2022-12-23T23:51:32.480Z,3.30
2022-12-23T23:54:00.630Z,2.60
2022-12-23T23:56:37.482Z,3.47
2022-12-23T23:59:06.648Z,3.17
